createdAt,value
2023-05-14T00:01:36.284Z,13.80
2023-05-14T00:04:04.409Z,12.20
2023-05-14T00:06:31.892Z,12.07
2023-05-14T00:08:58.788Z,12.13
2023-05-14T00:11:26.109Z,12.93
2023-05-14T00:13:53.068Z,12.15
2023-05-14T00:16:20.311Z,11.38
2023-05-14T00:18:47.378Z,11.25
2023-05-14T00:21:14.699Z,10.48
2023-05-14T00:23:41.572Z,11.00
2023-05-14T00:26:08.927Z,11.60
2023-05-14T00:28:35.835Z,10.82
2023-05-14T00:31:03.339Z,10.05
2023-05-14T00:33:31.035Z,10.35
2023-05-14T00:35:58.448Z,10.50
2023-05-14T00:38:27.651Z,12.68
2023-05-14T00:40:54.926Z,11.27
2023-05-14T00:43:22.836Z,9.88
2023-05-14T00:45:52.525Z,9.23
2023-05-14T00:48:21.491Z,12.23
2023-05-14T00:50:51.000Z,11.23
2023-05-14T00:53:21.499Z,11.23
2023-05-14T00:55:50.521Z,12.05
2023-05-14T00:58:19.340Z,10.55
2023-05-14T01:00:46.877Z,11.98
2023-05-14T01:03:14.024Z,12.32
2023-05-14T01:06:13.242Z,12.43
2023-05-14T01:09:12.481Z,13.77
2023-05-14T01:12:02.754Z,13.88
2023-05-14T01:14:40.979Z,11.73
2023-05-14T01:17:13.074Z,15.18
2023-05-14T01:19:45.354Z,14.55
2023-05-14T01:22:13.134Z,12.48
2023-05-14T01:24:40.617Z,14.70
2023-05-14T01:27:35.600Z,14.68
2023-05-14T01:30:10.221Z,15.27
2023-05-14T01:32:39.614Z,15.95
2023-05-14T01:35:09.332Z,13.90
2023-05-14T01:37:38.784Z,13.25
2023-05-14T01:40:08.066Z,10.90
2023-05-14T01:42:36.224Z,13.38
2023-05-14T01:45:03.689Z,13.80
2023-05-14T01:47:30.966Z,10.82
2023-05-14T01:49:57.968Z,11.30
2023-05-14T01:52:25.261Z,14.50
2023-05-14T01:54:52.502Z,11.43
2023-05-14T01:57:19.766Z,11.38
2023-05-14T01:59:46.737Z,13.20
2023-05-14T02:02:14.456Z,12.27
2023-05-14T02:04:42.150Z,12.68
2023-05-14T02:07:09.333Z,12.65
2023-05-14T02:09:36.343Z,10.77
2023-05-14T02:12:04.099Z,11.57
2023-05-14T02:14:31.355Z,10.65
2023-05-14T02:16:58.613Z,10.73
2023-05-14T02:19:25.593Z,11.52
2023-05-14T02:21:52.766Z,11.55
2023-05-14T02:24:19.770Z,13.13
2023-05-14T02:26:47.244Z,10.73
2023-05-14T02:29:14.130Z,13.02
2023-05-14T02:31:41.441Z,13.45
2023-05-14T02:34:08.424Z,12.75
2023-05-14T02:36:35.711Z,11.35
2023-05-14T02:39:02.830Z,11.20
2023-05-14T02:41:30.280Z,10.23
2023-05-14T02:43:57.459Z,10.57
2023-05-14T02:46:24.944Z,11.65
2023-05-14T02:48:51.868Z,12.75
2023-05-14T02:51:21.135Z,10.95
2023-05-14T02:53:48.254Z,12.48
2023-05-14T02:56:15.630Z,12.38
2023-05-14T02:58:42.663Z,12.93
2023-05-14T03:01:10.132Z,12.98
2023-05-14T03:03:38.195Z,10.98
2023-05-14T03:06:06.039Z,10.13
2023-05-14T03:08:33.082Z,10.23
2023-05-14T03:11:00.578Z,10.60
2023-05-14T03:13:27.660Z,10.55
2023-05-14T03:15:55.216Z,11.02
2023-05-14T03:18:23.115Z,11.50
2023-05-14T03:20:50.452Z,10.32
2023-05-14T03:23:17.558Z,11.18
2023-05-14T03:25:45.481Z,10.00
2023-05-14T03:28:12.427Z,9.38
2023-05-14T03:30:40.214Z,11.55
2023-05-14T03:33:07.376Z,11.10
2023-05-14T03:35:34.635Z,8.40
2023-05-14T03:38:01.672Z,9.95
2023-05-14T03:40:28.888Z,10.13
2023-05-14T03:42:56.110Z,11.07
2023-05-14T03:45:24.001Z,10.48
2023-05-14T03:47:51.042Z,11.50
2023-05-14T03:50:18.628Z,11.85
2023-05-14T03:52:46.022Z,9.05
2023-05-14T03:55:13.253Z,10.68
2023-05-14T03:57:40.567Z,12.88
2023-05-14T04:00:08.739Z,12.88
2023-05-14T04:02:43.884Z,11.88
2023-05-14T04:05:11.546Z,11.27
2023-05-14T04:07:38.588Z,11.18
2023-05-14T04:10:06.829Z,11.68
2023-05-14T04:12:35.795Z,11.65
2023-05-14T04:15:05.263Z,12.20
2023-05-14T04:17:33.960Z,12.80
2023-05-14T04:20:04.429Z,11.18
2023-05-14T04:22:32.015Z,11.38
2023-05-14T04:24:59.190Z,11.10
2023-05-14T04:27:26.778Z,9.35
2023-05-14T04:29:53.919Z,10.27
2023-05-14T04:32:21.343Z,11.20
2023-05-14T04:34:48.619Z,12.45
2023-05-14T04:37:15.791Z,9.85
2023-05-14T04:39:43.521Z,8.15
2023-05-14T04:42:10.834Z,9.40
2023-05-14T04:44:37.981Z,10.15
2023-05-14T04:47:05.359Z,9.73
2023-05-14T04:49:33.379Z,8.73
2023-05-14T04:52:01.534Z,10.30
2023-05-14T04:54:29.051Z,9.30
2023-05-14T04:56:55.991Z,9.05
2023-05-14T04:59:23.348Z,11.20
2023-05-14T05:01:51.602Z,12.98
2023-05-14T05:04:19.408Z,9.68
2023-05-14T05:06:46.545Z,10.00
2023-05-14T05:09:14.577Z,10.25
2023-05-14T05:11:41.737Z,9.85
2023-05-14T05:14:08.929Z,9.57
2023-05-14T05:16:36.011Z,12.02
2023-05-14T05:19:03.577Z,9.02
2023-05-14T05:21:31.732Z,9.90
2023-05-14T05:23:58.913Z,9.57
2023-05-14T05:26:27.186Z,10.27
2023-05-14T05:28:54.481Z,9.15
2023-05-14T05:31:21.434Z,8.02
2023-05-14T05:33:48.950Z,8.68
2023-05-14T05:36:15.973Z,7.75
2023-05-14T05:38:43.127Z,9.77
2023-05-14T05:41:10.419Z,8.15
2023-05-14T05:43:37.578Z,7.90
2023-05-14T05:46:04.482Z,7.90
2023-05-14T05:48:31.719Z,7.82
2023-05-14T05:50:58.682Z,6.85
2023-05-14T05:53:26.037Z,8.13
2023-05-14T05:55:53.002Z,8.50
2023-05-14T05:58:20.313Z,6.13
2023-05-14T06:00:47.535Z,6.07
2023-05-14T06:03:14.812Z,7.18
2023-05-14T06:05:41.943Z,5.60
2023-05-14T06:08:09.785Z,8.05
2023-05-14T06:10:37.578Z,6.95
2023-05-14T06:13:04.871Z,5.90
2023-05-14T06:15:31.732Z,5.75
2023-05-14T06:17:59.109Z,5.85
2023-05-14T06:20:26.398Z,6.53
2023-05-14T06:22:54.156Z,5.60
2023-05-14T06:25:21.239Z,6.15
2023-05-14T06:27:48.584Z,7.13
2023-05-14T06:30:15.972Z,5.97
2023-05-14T06:32:43.521Z,5.32
2023-05-14T06:35:10.772Z,5.93
2023-05-14T06:37:38.117Z,5.95
2023-05-14T06:40:06.665Z,6.07
2023-05-14T06:42:33.846Z,7.18
2023-05-14T06:45:00.773Z,6.10
2023-05-14T06:47:28.491Z,5.50
2023-05-14T06:49:58.534Z,5.97
2023-05-14T06:52:25.900Z,4.47
2023-05-14T06:54:55.417Z,5.88
2023-05-14T06:57:22.707Z,6.47
2023-05-14T06:59:49.641Z,5.22
2023-05-14T07:02:16.802Z,4.97
2023-05-14T07:04:43.946Z,4.93
2023-05-14T07:07:15.155Z,6.78
2023-05-14T07:09:42.445Z,6.38
2023-05-14T07:12:09.817Z,5.18
2023-05-14T07:14:36.800Z,5.35
2023-05-14T07:17:04.487Z,4.47
2023-05-14T07:19:31.500Z,4.72
2023-05-14T07:21:58.801Z,5.97
2023-05-14T07:24:25.884Z,4.40
2023-05-14T07:26:54.345Z,5.50
2023-05-14T07:29:22.276Z,4.32
2023-05-14T07:31:49.696Z,4.57
2023-05-14T07:34:16.858Z,4.10
2023-05-14T07:36:44.176Z,6.72
2023-05-14T07:39:11.214Z,4.55
2023-05-14T07:41:38.475Z,4.50
2023-05-14T07:44:05.754Z,5.18
2023-05-14T07:46:32.637Z,4.85
2023-05-14T07:48:59.959Z,4.22
2023-05-14T07:51:28.324Z,4.03
2023-05-14T07:53:56.075Z,5.25
2023-05-14T07:56:23.476Z,4.05
2023-05-14T07:58:51.712Z,4.95
2023-05-14T08:01:18.822Z,5.43
2023-05-14T08:03:46.581Z,5.22
2023-05-14T08:06:13.706Z,4.53
2023-05-14T08:08:41.164Z,4.65
2023-05-14T08:11:08.177Z,4.35
2023-05-14T08:13:35.436Z,4.82
2023-05-14T08:16:02.885Z,3.83
2023-05-14T08:18:30.172Z,3.72
2023-05-14T08:20:57.174Z,4.97
2023-05-14T08:23:24.507Z,4.10
2023-05-14T08:25:51.413Z,4.20
2023-05-14T08:28:18.672Z,3.75
2023-05-14T08:30:45.866Z,4.32
2023-05-14T08:33:13.267Z,3.70
2023-05-14T08:35:40.244Z,3.97
2023-05-14T08:38:07.533Z,4.78
2023-05-14T08:40:35.132Z,5.85
2023-05-14T08:43:03.013Z,3.33
2023-05-14T08:45:34.977Z,5.22
2023-05-14T08:48:08.908Z,5.20
2023-05-14T08:50:36.912Z,7.05
2023-05-14T08:53:04.135Z,4.25
2023-05-14T08:55:33.363Z,3.85
2023-05-14T08:58:04.339Z,5.13
2023-05-14T09:00:31.417Z,4.25
2023-05-14T09:03:00.371Z,4.60
2023-05-14T09:05:28.024Z,5.65
2023-05-14T09:07:55.500Z,3.70
2023-05-14T09:10:23.089Z,4.53
2023-05-14T09:12:51.616Z,3.70
2023-05-14T09:15:18.880Z,4.97
2023-05-14T09:17:48.540Z,4.68
2023-05-14T09:20:16.716Z,3.88
2023-05-14T09:22:43.941Z,4.22
2023-05-14T09:25:12.374Z,5.25
2023-05-14T09:27:39.786Z,3.85
2023-05-14T09:30:13.187Z,3.78
2023-05-14T09:32:46.309Z,4.22
2023-05-14T09:35:23.478Z,3.35
2023-05-14T09:37:55.468Z,2.78
2023-05-14T09:40:24.679Z,3.15
2023-05-14T09:42:52.257Z,3.97
2023-05-14T09:45:19.390Z,3.35
2023-05-14T09:47:47.162Z,3.03
2023-05-14T09:50:14.251Z,3.60
2023-05-14T09:52:42.532Z,2.67
2023-05-14T09:55:09.921Z,2.35
2023-05-14T09:57:37.508Z,2.78
2023-05-14T10:00:05.483Z,3.30
2023-05-14T10:02:38.296Z,2.80
2023-05-14T10:05:08.187Z,2.08
2023-05-14T10:07:47.958Z,3.83
2023-05-14T10:10:24.814Z,2.83
2023-05-14T10:12:58.093Z,2.75
2023-05-14T10:15:37.340Z,3.83
2023-05-14T10:18:16.005Z,3.03
2023-05-14T10:20:47.008Z,2.05
2023-05-14T10:23:14.508Z,2.20
2023-05-14T10:25:42.301Z,2.05
2023-05-14T10:28:10.584Z,2.42
2023-05-14T10:30:46.122Z,1.85
2023-05-14T10:33:16.595Z,1.85
2023-05-14T10:36:06.789Z,2.30
2023-05-14T10:38:36.883Z,1.90
2023-05-14T10:41:05.831Z,2.58
2023-05-14T10:43:41.075Z,2.20
2023-05-14T10:46:11.066Z,2.58
2023-05-14T10:48:42.802Z,2.55
2023-05-14T10:51:11.393Z,4.05
2023-05-14T10:53:43.168Z,2.00
2023-05-14T10:56:14.605Z,2.58
2023-05-14T10:58:45.842Z,2.78
2023-05-14T11:01:13.765Z,2.50
2023-05-14T11:03:46.834Z,2.83
2023-05-14T11:06:16.179Z,2.08
2023-05-14T11:08:46.213Z,2.38
2023-05-14T11:11:13.327Z,2.72
2023-05-14T11:13:42.599Z,2.83
2023-05-14T11:18:41.755Z,2.00
2023-05-14T11:21:08.960Z,2.20
2023-05-14T11:23:36.266Z,2.35
2023-05-14T11:26:03.506Z,2.17
2023-05-14T11:28:30.894Z,2.90
2023-05-14T11:30:57.896Z,3.13
2023-05-14T11:33:29.098Z,2.13
2023-05-14T11:35:56.160Z,2.50
2023-05-14T11:38:23.395Z,2.10
2023-05-14T11:40:56.767Z,3.00
2023-05-14T11:43:29.211Z,1.95
2023-05-14T11:45:56.807Z,4.43
2023-05-14T11:48:24.344Z,4.50
2023-05-14T11:50:52.950Z,3.08
2023-05-14T11:53:26.540Z,2.90
2023-05-14T11:55:59.884Z,3.70
2023-05-14T11:58:27.023Z,3.97
2023-05-14T12:00:56.050Z,2.40
2023-05-14T12:03:26.667Z,3.00
2023-05-14T12:06:02.434Z,4.10
2023-05-14T12:08:31.998Z,3.47
2023-05-14T12:11:00.867Z,2.97
2023-05-14T12:13:31.378Z,2.92
2023-05-14T12:16:02.393Z,2.33
2023-05-14T12:18:32.395Z,2.22
2023-05-14T12:21:04.802Z,4.47
2023-05-14T12:23:33.251Z,2.75
2023-05-14T12:26:09.048Z,2.25
2023-05-14T12:28:43.354Z,2.85
2023-05-14T12:31:10.802Z,3.53
2023-05-14T12:33:37.981Z,2.75
2023-05-14T12:36:20.549Z,2.53
2023-05-14T12:39:01.661Z,2.70
2023-05-14T12:41:32.104Z,4.85
2023-05-14T12:44:00.732Z,2.58
2023-05-14T12:46:28.321Z,2.30
2023-05-14T12:48:56.621Z,2.42
2023-05-14T12:51:23.949Z,3.15
2023-05-14T12:53:52.192Z,3.33
2023-05-14T12:56:19.478Z,1.85
2023-05-14T12:58:47.670Z,2.85
2023-05-14T13:01:14.742Z,3.05
2023-05-14T13:03:42.146Z,3.50
2023-05-14T13:06:09.308Z,2.97
2023-05-14T13:08:36.678Z,2.42
2023-05-14T13:11:03.851Z,3.78
2023-05-14T13:13:31.105Z,3.13
2023-05-14T13:15:58.113Z,2.70
2023-05-14T13:18:26.623Z,3.63
2023-05-14T13:20:54.212Z,2.33
2023-05-14T13:23:21.487Z,3.22
2023-05-14T13:25:50.060Z,2.30
2023-05-14T13:28:17.500Z,2.72
2023-05-14T13:31:06.238Z,3.75
2023-05-14T13:33:40.690Z,3.30
2023-05-14T13:36:09.515Z,5.05
2023-05-14T13:38:36.736Z,2.13
2023-05-14T13:41:04.235Z,4.05
2023-05-14T13:43:33.434Z,3.33
2023-05-14T13:46:01.507Z,3.13
2023-05-14T13:48:28.993Z,3.00
2023-05-14T13:50:56.169Z,2.60
2023-05-14T13:53:25.133Z,5.45
2023-05-14T13:56:00.858Z,3.17
2023-05-14T13:58:28.329Z,3.33
2023-05-14T14:00:56.490Z,2.25
2023-05-14T14:03:23.847Z,2.88
2023-05-14T14:05:52.023Z,2.72
2023-05-14T14:08:24.006Z,2.88
2023-05-14T14:10:54.368Z,3.10
2023-05-14T14:13:22.806Z,3.97
2023-05-14T14:15:50.256Z,3.63
2023-05-14T14:18:18.126Z,3.35
2023-05-14T14:20:45.383Z,2.53
2023-05-14T14:23:12.673Z,5.50
2023-05-14T14:25:39.929Z,3.10
2023-05-14T14:28:07.099Z,2.53
2023-05-14T14:30:34.602Z,2.90
2023-05-14T14:33:02.066Z,6.35
2023-05-14T14:35:28.991Z,3.45
2023-05-14T14:37:56.174Z,3.60
2023-05-14T14:40:24.074Z,4.45
2023-05-14T14:42:51.304Z,2.35
2023-05-14T14:45:18.454Z,3.83
2023-05-14T14:47:46.865Z,4.78
2023-05-14T14:50:14.088Z,3.17
2023-05-14T14:52:45.771Z,4.70
2023-05-14T14:55:13.392Z,3.08
2023-05-14T14:57:40.654Z,3.67
2023-05-14T15:00:09.264Z,3.58
2023-05-14T15:02:41.840Z,2.65
2023-05-14T15:05:09.531Z,2.65
2023-05-14T15:07:36.679Z,4.25
2023-05-14T15:10:04.404Z,2.55
2023-05-14T15:12:31.653Z,2.83
2023-05-14T15:14:58.692Z,3.22
2023-05-14T15:17:26.543Z,2.70
2023-05-14T15:19:53.577Z,3.72
2023-05-14T15:22:21.381Z,2.78
2023-05-14T15:24:48.715Z,4.18
2023-05-14T15:27:16.210Z,2.88
2023-05-14T15:29:43.168Z,2.97
2023-05-14T15:32:10.829Z,2.58
2023-05-14T15:34:38.017Z,2.67
2023-05-14T15:37:05.856Z,3.10
2023-05-14T15:39:32.863Z,3.17
2023-05-14T15:42:00.211Z,2.80
2023-05-14T15:44:27.147Z,2.63
2023-05-14T15:46:54.512Z,2.78
2023-05-14T15:49:21.775Z,2.90
2023-05-14T15:51:49.188Z,3.25
2023-05-14T15:54:16.175Z,3.80
2023-05-14T15:56:43.425Z,6.18
2023-05-14T15:59:10.520Z,2.92
2023-05-14T16:01:37.773Z,4.50
2023-05-14T16:04:04.851Z,3.75
2023-05-14T16:06:35.052Z,2.60
2023-05-14T16:09:03.115Z,5.32
2023-05-14T16:11:30.497Z,4.03
2023-05-14T16:13:58.474Z,2.97
2023-05-14T16:16:25.904Z,3.55
2023-05-14T16:18:52.868Z,3.58
2023-05-14T16:21:20.287Z,4.95
2023-05-14T16:23:47.439Z,3.42
2023-05-14T16:26:14.716Z,3.08
2023-05-14T16:28:42.702Z,3.63
2023-05-14T16:31:10.239Z,6.72
2023-05-14T16:33:37.381Z,4.30
2023-05-14T16:36:04.904Z,4.50
2023-05-14T16:38:31.904Z,5.18
2023-05-14T16:40:59.447Z,2.95
2023-05-14T16:43:26.407Z,5.10
2023-05-14T16:45:53.725Z,3.40
2023-05-14T16:48:23.777Z,3.78
2023-05-14T16:50:51.067Z,5.18
2023-05-14T16:53:18.104Z,5.45
2023-05-14T16:55:45.533Z,3.50
2023-05-14T16:58:12.660Z,6.13
2023-05-14T17:00:40.064Z,2.90
2023-05-14T17:03:07.189Z,3.58
2023-05-14T17:05:34.984Z,2.30
2023-05-14T17:08:02.282Z,4.07
2023-05-14T17:10:30.210Z,3.13
2023-05-14T17:12:57.127Z,3.42
2023-05-14T17:15:42.502Z,3.97
2023-05-14T17:18:11.807Z,3.88
2023-05-14T17:20:39.204Z,4.45
2023-05-14T17:23:06.181Z,4.10
2023-05-14T17:25:33.518Z,3.10
2023-05-14T17:28:00.554Z,2.60
2023-05-14T17:30:27.736Z,3.13
2023-05-14T17:32:54.764Z,2.50
2023-05-14T17:35:22.182Z,5.32
2023-05-14T17:37:49.630Z,4.97
2023-05-14T17:40:17.016Z,3.88
2023-05-14T17:42:45.414Z,4.18
2023-05-14T17:45:13.458Z,3.90
2023-05-14T17:47:40.458Z,3.15
2023-05-14T17:50:08.628Z,4.60
2023-05-14T17:52:35.956Z,5.30
2023-05-14T17:55:03.738Z,5.25
2023-05-14T17:57:30.834Z,5.13
2023-05-14T17:59:58.055Z,5.45
2023-05-14T18:02:26.050Z,6.38
2023-05-14T18:04:53.250Z,6.05
2023-05-14T18:07:21.520Z,5.88
2023-05-14T18:09:48.900Z,5.00
2023-05-14T18:12:15.903Z,4.47
2023-05-14T18:14:45.386Z,5.20
2023-05-14T18:17:12.764Z,5.45
2023-05-14T18:19:40.962Z,5.25
2023-05-14T18:22:08.099Z,4.47
2023-05-14T18:24:35.299Z,4.38
2023-05-14T18:27:02.437Z,3.97
2023-05-14T18:29:29.868Z,5.00
2023-05-14T18:31:56.833Z,5.60
2023-05-14T18:34:24.288Z,6.05
2023-05-14T18:36:51.405Z,3.28
2023-05-14T18:39:19.163Z,4.00
2023-05-14T18:41:46.218Z,3.00
2023-05-14T18:44:13.716Z,3.28
2023-05-14T18:46:40.767Z,2.70
2023-05-14T18:49:08.241Z,3.67
2023-05-14T18:51:35.231Z,3.80
2023-05-14T18:54:05.873Z,3.78
2023-05-14T18:56:33.009Z,3.25
2023-05-14T18:59:00.233Z,4.25
2023-05-14T19:01:28.050Z,4.68
2023-05-14T19:03:56.104Z,4.40
2023-05-14T19:06:23.254Z,3.28
2023-05-14T19:08:50.452Z,3.58
2023-05-14T19:11:18.125Z,4.13
2023-05-14T19:13:46.745Z,3.38
2023-05-14T19:16:13.903Z,4.78
2023-05-14T19:18:41.645Z,3.40
2023-05-14T19:21:08.761Z,4.53
2023-05-14T19:23:35.962Z,4.55
2023-05-14T19:26:03.704Z,3.28
2023-05-14T19:28:30.982Z,4.45
2023-05-14T19:30:58.176Z,5.30
2023-05-14T19:33:26.034Z,4.53
2023-05-14T19:35:53.280Z,4.45
2023-05-14T19:38:20.864Z,5.25
2023-05-14T19:40:47.889Z,5.07
2023-05-14T19:43:15.143Z,6.40
2023-05-14T19:45:42.630Z,4.93
2023-05-14T19:48:10.295Z,3.78
2023-05-14T19:50:37.411Z,4.65
2023-05-14T19:53:05.118Z,5.05
2023-05-14T19:55:32.758Z,4.15
2023-05-14T19:57:59.928Z,4.53
2023-05-14T20:00:27.461Z,4.10
2023-05-14T20:02:55.257Z,4.13
2023-05-14T20:05:22.322Z,4.60
2023-05-14T20:07:50.073Z,4.10
2023-05-14T20:10:17.030Z,5.82
2023-05-14T20:12:44.484Z,7.03
2023-05-14T20:15:11.660Z,5.78
2023-05-14T20:17:39.605Z,6.22
2023-05-14T20:20:10.071Z,6.50
2023-05-14T20:22:38.231Z,6.90
2023-05-14T20:25:06.752Z,6.85
2023-05-14T20:27:34.044Z,5.88
2023-05-14T20:30:01.151Z,4.63
2023-05-14T20:32:28.629Z,5.25
2023-05-14T20:34:55.730Z,4.18
2023-05-14T20:37:23.974Z,6.43
2023-05-14T20:39:50.933Z,4.50
2023-05-14T20:42:18.170Z,4.78
2023-05-14T20:44:45.135Z,4.32
2023-05-14T20:47:16.287Z,5.35
2023-05-14T20:49:43.411Z,5.15
2023-05-14T20:52:10.669Z,3.83
2023-05-14T20:54:37.571Z,4.28
2023-05-14T20:57:05.216Z,4.93
2023-05-14T20:59:32.222Z,4.20
2023-05-14T21:01:59.604Z,4.63
2023-05-14T21:04:26.839Z,5.10
2023-05-14T21:06:54.464Z,4.13
2023-05-14T21:09:23.137Z,6.00
2023-05-14T21:11:50.674Z,4.55
2023-05-14T21:14:17.620Z,4.53
2023-05-14T21:16:45.324Z,4.13
2023-05-14T21:19:13.382Z,4.47
2023-05-14T21:21:42.660Z,4.70
2023-05-14T21:24:09.679Z,6.32
2023-05-14T21:26:37.594Z,4.93
2023-05-14T21:29:04.632Z,6.03
2023-05-14T21:31:31.892Z,5.30
2023-05-14T21:33:58.849Z,7.47
2023-05-14T21:36:26.234Z,4.38
2023-05-14T21:38:53.904Z,4.82
2023-05-14T21:41:21.652Z,6.20
2023-05-14T21:43:48.498Z,5.32
2023-05-14T21:46:16.277Z,6.63
2023-05-14T21:48:43.551Z,6.78
2023-05-14T21:51:11.058Z,5.32
2023-05-14T21:53:38.071Z,6.38
2023-05-14T21:56:06.081Z,4.60
2023-05-14T21:58:33.055Z,5.28
2023-05-14T22:01:00.403Z,7.47
2023-05-14T22:03:29.507Z,5.47
2023-05-14T22:05:57.180Z,6.00
2023-05-14T22:08:24.378Z,5.28
2023-05-14T22:10:51.666Z,5.70
2023-05-14T22:13:18.634Z,4.88
2023-05-14T22:15:46.059Z,3.92
2023-05-14T22:18:15.304Z,5.40
2023-05-14T22:20:43.064Z,4.95
2023-05-14T22:23:09.912Z,5.43
2023-05-14T22:25:37.301Z,4.82
2023-05-14T22:28:04.409Z,5.25
2023-05-14T22:30:31.540Z,5.80
2023-05-14T22:32:58.501Z,5.60
2023-05-14T22:35:25.976Z,6.47
2023-05-14T22:37:53.197Z,4.50
2023-05-14T22:40:20.549Z,6.90
2023-05-14T22:42:47.390Z,6.28
2023-05-14T22:45:14.767Z,5.07
2023-05-14T22:47:41.789Z,6.68
2023-05-14T22:50:11.433Z,6.10
2023-05-14T22:52:40.080Z,5.32
2023-05-14T22:55:08.380Z,4.35
2023-05-14T22:57:35.522Z,4.47
2023-05-14T23:00:04.545Z,4.82
2023-05-14T23:02:31.604Z,5.28
2023-05-14T23:05:01.910Z,5.40
2023-05-14T23:07:28.930Z,5.60
2023-05-14T23:09:56.161Z,4.72
2023-05-14T23:12:23.074Z,5.22
2023-05-14T23:14:50.292Z,5.18
2023-05-14T23:17:17.673Z,7.10
2023-05-14T23:19:44.842Z,4.30
2023-05-14T23:22:12.444Z,5.70
2023-05-14T23:24:39.699Z,6.13
2023-05-14T23:27:06.964Z,5.80
2023-05-14T23:29:34.164Z,5.10
2023-05-14T23:32:01.158Z,3.65
2023-05-14T23:34:28.497Z,4.93
2023-05-14T23:36:55.841Z,5.78
2023-05-14T23:39:23.169Z,4.82
2023-05-14T23:41:50.169Z,6.03
2023-05-14T23:44:17.305Z,5.38
2023-05-14T23:46:44.442Z,13.48
2023-05-14T23:49:12.494Z,5.72
2023-05-14T23:51:39.383Z,7.88
2023-05-14T23:54:06.632Z,5.22
2023-05-14T23:56:34.300Z,5.47
2023-05-14T23:59:01.745Z,5.28
